Time;durP1;ratioP1;P1;durP2;ratioP2;P2;SDS_P1;SDS_P2;PMS_P1;PMS_P2;Temp;Humidity;BMP_temperature;BMP_pressure;BME280_temperature;BME280_humidity;BME280_pressure;Samples;Min_cycle;Max_cycle;Signal;HPM_P1;HPM_P2
2021/06/08 00:00:55;;;;;;;13.60;8.88;;;;;;;16.27;79.13;100372.54;1708853;84;21366;-81
2021/06/08 00:03:22;;;;;;;12.30;8.40;;;;;;;16.26;79.18;100373.52;1709283;82;20943;-82
2021/06/08 00:05:49;;;;;;;13.83;8.10;;;;;;;16.26;79.18;100373.52;1708970;84;21778;-82
2021/06/08 00:08:16;;;;;;;15.28;8.43;;;;;;;16.26;79.32;100382.29;1708897;82;20913;-82
2021/06/08 00:10:43;;;;;;;13.43;9.80;;;;;;;16.24;79.24;100364.39;1708904;84;21568;-82
2021/06/08 00:13:09;;;;;;;12.10;8.48;;;;;;;16.24;79.24;100364.39;1710172;84;20932;-82
2021/06/08 00:15:36;;;;;;;10.48;7.75;;;;;;;16.24;79.31;100358.27;1709548;84;20964;-81
2021/06/08 00:18:03;;;;;;;11.28;8.90;;;;;;;16.15;79.49;100357.27;1709132;82;21138;-82
2021/06/08 00:20:30;;;;;;;10.00;8.05;;;;;;;16.11;79.72;100353.20;1708855;84;20944;-81
2021/06/08 00:22:57;;;;;;;8.90;8.00;;;;;;;16.08;79.74;100351.67;1708906;84;20908;-82
2021/06/08 00:25:24;;;;;;;8.55;7.28;;;;;;;16.05;79.90;100354.59;1708983;82;20932;-82
2021/06/08 00:27:56;;;;;;;20.68;8.18;;;;;;;16.01;79.97;100353.64;1708713;82;21444;-82
2021/06/08 00:30:24;;;;;;;17.30;7.70;;;;;;;15.91;80.19;100351.81;1708920;83;22049;-82
2021/06/08 00:32:51;;;;;;;10.20;8.23;;;;;;;15.84;80.43;100352.48;1709089;84;20983;-81
2021/06/08 00:35:18;;;;;;;12.37;8.90;;;;;;;15.81;80.42;100356.23;1708996;84;21022;-82
2021/06/08 00:37:45;;;;;;;13.70;9.43;;;;;;;15.80;80.50;100349.75;1709230;84;21398;-81
2021/06/08 00:40:13;;;;;;;9.78;8.78;;;;;;;15.74;80.18;100351.96;1708870;82;21421;-82
2021/06/08 00:42:40;;;;;;;17.98;10.20;;;;;;;15.74;80.18;100351.96;1709225;82;21805;-82
2021/06/08 00:45:08;;;;;;;13.70;9.48;;;;;;;15.72;80.06;100355.22;1708832;82;20873;-82
2021/06/08 00:47:35;;;;;;;14.10;8.40;;;;;;;15.71;79.89;100356.66;1709122;82;21393;-82
2021/06/08 00:50:04;;;;;;;12.10;8.93;;;;;;;15.69;79.90;100361.21;1708797;84;20924;-81
2021/06/08 00:52:31;;;;;;;12.33;7.85;;;;;;;15.66;79.96;100357.52;1708907;82;20995;-82
2021/06/08 00:54:58;;;;;;;10.13;6.80;;;;;;;15.65;80.21;100353.19;1708904;84;21772;-80
2021/06/08 00:57:25;;;;;;;9.68;6.78;;;;;;;15.63;80.40;100363.91;1708755;82;20913;-83
2021/06/08 00:59:51;;;;;;;9.13;6.20;;;;;;;15.64;80.68;100358.13;1709162;84;20892;-81
2021/06/08 01:02:18;;;;;;;9.10;6.85;;;;;;;15.64;80.89;100362.09;1711554;82;21051;-83
2021/06/08 01:04:45;;;;;;;9.93;6.12;;;;;;;15.65;81.02;100365.08;1709544;84;20860;-82
2021/06/08 01:07:13;;;;;;;9.50;6.00;;;;;;;15.65;81.15;100359.80;1709663;84;21466;-83
2021/06/08 01:09:39;;;;;;;7.75;6.22;;;;;;;15.65;81.20;100359.33;1709047;84;20944;-83
2021/06/08 01:12:08;;;;;;;12.10;5.97;;;;;;;15.63;81.22;100357.30;1708762;84;20980;-80
2021/06/08 01:14:35;;;;;;;9.58;5.55;;;;;;;15.59;81.31;100359.02;1709525;84;20916;-82
2021/06/08 01:17:02;;;;;;;7.55;5.72;;;;;;;15.54;81.45;100365.53;1709901;82;20932;-83
2021/06/08 01:19:29;;;;;;;9.20;5.40;;;;;;;15.52;81.69;100364.82;1709601;84;21128;-82
2021/06/08 01:21:56;;;;;;;14.93;6.55;;;;;;;15.51;82.11;100368.41;1708807;82;20876;-84
2021/06/08 01:24:23;;;;;;;7.92;6.45;;;;;;;15.51;82.11;100368.41;1709439;84;20912;-80
2021/06/08 01:26:50;;;;;;;9.85;6.72;;;;;;;15.54;82.06;100367.34;1708856;84;20936;-81
2021/06/08 01:29:17;;;;;;;10.90;6.10;;;;;;;15.59;81.88;100373.56;1708811;84;21480;-81
2021/06/08 01:31:44;;;;;;;8.50;6.85;;;;;;;15.61;81.53;100376.42;1710919;83;21069;-81
2021/06/08 01:34:13;;;;;;;9.28;7.53;;;;;;;15.66;81.28;100383.95;1664575;82;20944;-81
2021/06/08 01:36:40;;;;;;;7.65;6.70;;;;;;;15.67;81.00;100380.33;1710738;82;20940;-81
2021/06/08 01:39:07;;;;;;;10.48;6.75;;;;;;;15.69;80.76;100385.00;1745195;80;21331;-81
2021/06/08 01:41:35;;;;;;;10.75;6.53;;;;;;;15.70;80.56;100382.73;1744742;80;20912;-81
2021/06/08 01:44:03;;;;;;;6.83;5.40;;;;;;;15.70;80.53;100382.23;1744942;82;21796;-80
2021/06/08 01:46:30;;;;;;;8.13;5.87;;;;;;;15.69;80.62;100381.87;1744556;80;20972;-81
2021/06/08 01:48:57;;;;;;;12.03;7.70;;;;;;;15.69;80.70;100379.72;1744885;82;20913;-82
2021/06/08 01:51:44;;;;;;;9.18;7.17;;;;;;;15.68;80.76;100379.37;1744978;82;20929;-81
2021/06/08 01:54:46;;;;;;;9.38;6.80;;;;;;;15.66;80.79;100379.98;1713682;82;20908;-81
2021/06/08 01:57:35;;;;;;;8.98;7.37;;;;;;;15.64;80.83;100388.04;1716687;83;21780;-82
2021/06/08 02:00:09;;;;;;;12.30;7.40;;;;;;;15.63;80.91;100396.09;1716777;83;20982;-81
2021/06/08 02:03:18;;;;;;;8.48;6.08;;;;;;;15.62;81.08;100393.94;1716925;83;21416;-79
2021/06/08 02:06:08;;;;;;;8.13;6.00;;;;;;;15.60;81.17;100403.80;1716915;83;20931;-79
2021/06/08 02:09:00;;;;;;;10.78;6.70;;;;;;;15.59;81.34;100398.17;1716313;83;20916;-80
2021/06/08 02:11:57;;;;;;;9.85;6.90;;;;;;;15.57;81.45;100401.92;1753914;80;21107;-80
2021/06/08 02:14:38;;;;;;;11.68;6.90;;;;;;;15.52;81.64;100399.18;1753411;82;20924;-79
2021/06/08 02:17:09;;;;;;;10.65;7.72;;;;;;;15.51;81.93;100405.91;1755294;82;20889;-79
2021/06/08 02:19:36;;;;;;;12.65;6.42;;;;;;;15.55;81.99;100398.08;1754681;81;20960;-79
2021/06/08 02:22:05;;;;;;;10.18;6.95;;;;;;;15.58;82.01;100396.97;1736647;82;20953;-79
2021/06/08 02:24:32;;;;;;;8.93;6.75;;;;;;;15.62;81.78;100399.72;1755761;82;21145;-80
2021/06/08 02:27:03;;;;;;;10.38;7.95;;;;;;;15.67;81.63;100400.16;1755574;82;21445;-78
2021/06/08 02:29:31;;;;;;;12.03;6.72;;;;;;;15.69;81.43;100392.44;1754783;81;20963;-78
2021/06/08 02:31:58;;;;;;;11.70;7.20;;;;;;;15.72;81.30;100398.02;1754897;82;20992;-78
2021/06/08 02:34:25;;;;;;;8.48;6.37;;;;;;;15.75;81.20;100395.09;1755389;82;20841;-78
2021/06/08 02:36:52;;;;;;;9.60;6.10;;;;;;;15.78;81.09;100400.59;1714156;83;21124;-78
2021/06/08 02:39:19;;;;;;;9.90;6.25;;;;;;;15.80;81.03;100404.78;1717354;83;20978;-81
2021/06/08 02:41:46;;;;;;;7.47;6.05;;;;;;;15.82;81.14;100409.46;1717072;83;21433;-83
2021/06/08 02:44:13;;;;;;;8.30;5.40;;;;;;;15.85;81.08;100413.19;1717359;83;20908;-82
2021/06/08 02:46:40;;;;;;;8.88;6.28;;;;;;;15.89;81.04;100415.89;1717102;83;20936;-83
2021/06/08 02:49:07;;;;;;;6.72;5.92;;;;;;;15.93;80.95;100423.09;1717253;83;21424;-82
2021/06/08 02:51:35;;;;;;;7.30;6.15;;;;;;;15.95;80.97;100416.70;1716830;83;20884;-81
2021/06/08 02:54:02;;;;;;;9.05;5.05;;;;;;;15.98;80.90;100418.73;1713648;83;20927;-81
2021/06/08 02:56:29;;;;;;;6.97;5.47;;;;;;;15.97;80.79;100419.22;1710703;82;20972;-83
2021/06/08 02:58:56;;;;;;;9.08;5.25;;;;;;;15.97;80.87;100419.71;1746341;81;20932;-84
2021/06/08 03:01:23;;;;;;;7.15;6.10;;;;;;;15.95;81.03;100418.52;1759513;81;21132;-82
2021/06/08 03:03:52;;;;;;;7.65;5.97;;;;;;;15.96;81.30;100413.56;1745309;82;20897;-84
2021/06/08 03:06:25;;;;;;;7.85;5.92;;;;;;;16.01;81.48;100420.63;1744780;82;21481;-84
2021/06/08 03:09:13;;;;;;;10.85;7.03;;;;;;;16.09;81.39;100423.44;1745072;81;20976;-83
2021/06/08 03:11:44;;;;;;;6.30;5.70;;;;;;;16.16;81.17;100424.60;1744800;81;20870;-83
2021/06/08 03:14:13;;;;;;;8.60;7.83;;;;;;;16.26;81.09;100423.80;1744981;81;21119;-81
2021/06/08 03:16:50;;;;;;;6.97;6.30;;;;;;;16.32;81.10;100424.59;1759276;81;20984;-81
2021/06/08 03:19:19;;;;;;;6.72;6.03;;;;;;;16.41;80.99;100420.28;1745216;80;20970;-80
2021/06/08 03:21:50;;;;;;;10.55;6.03;;;;;;;16.48;80.85;100421.44;1759060;81;20944;-81
2021/06/08 03:24:17;;;;;;;11.70;6.97;;;;;;;16.53;80.86;100418.72;1745226;80;20984;-80
2021/06/08 03:26:45;;;;;;;10.58;6.78;;;;;;;16.59;80.71;100422.64;1687814;84;21129;-82
2021/06/08 03:29:13;;;;;;;6.20;5.60;;;;;;;16.66;80.62;100428.23;1709222;84;20984;-84
2021/06/08 03:31:42;;;;;;;11.22;6.17;;;;;;;16.72;80.67;100428.53;1709268;84;20954;-83
2021/06/08 03:34:14;;;;;;;8.25;6.47;;;;;;;16.78;80.54;100427.98;1709547;84;21011;-81
2021/06/08 03:36:37;;;;;;;11.68;7.50;;;;;;;16.85;80.43;100437.58;1735976;82;20885;-79
2021/06/08 03:39:04;;;;;;;9.08;7.35;;;;;;;16.89;80.31;100434.98;1747274;81;21918;-80
2021/06/08 03:41:31;;;;;;;8.60;7.70;;;;;;;16.94;80.28;100434.11;1747110;82;20889;-80
2021/06/08 03:43:58;;;;;;;12.70;7.72;;;;;;;16.99;79.99;100438.98;1760362;80;20905;-79
2021/06/08 03:46:25;;;;;;;11.00;7.05;;;;;;;17.03;79.97;100435.55;1744847;82;20897;-82
2021/06/08 03:48:52;;;;;;;10.93;7.72;;;;;;;17.10;79.89;100440.67;1759873;81;21069;-84
2021/06/08 03:51:20;;;;;;;9.55;6.65;;;;;;;17.15;79.76;100438.44;1745567;81;21129;-83
2021/06/08 03:53:47;;;;;;;8.65;7.15;;;;;;;17.25;79.64;100432.63;1744753;81;20862;-81
2021/06/08 03:56:14;;;;;;;15.88;8.88;;;;;;;17.25;79.64;100432.63;1744827;82;20877;-81
2021/06/08 03:58:41;;;;;;;11.93;7.35;;;;;;;17.31;79.42;100434.72;1759394;81;20976;-81
2021/06/08 04:01:08;;;;;;;10.35;7.45;;;;;;;17.37;79.25;100435.50;1744797;82;21296;-80
2021/06/08 04:03:35;;;;;;;10.20;6.92;;;;;;;17.49;78.89;100438.00;1744693;80;21760;-80
2021/06/08 04:06:02;;;;;;;8.58;6.53;;;;;;;17.49;78.89;100438.00;1759104;81;20908;-81
2021/06/08 04:08:29;;;;;;;11.65;7.50;;;;;;;17.50;78.88;100434.38;1744954;82;20932;-82
2021/06/08 04:10:56;;;;;;;8.63;7.33;;;;;;;17.52;78.83;100429.75;1744856;82;20890;-83
2021/06/08 04:13:23;;;;;;;8.50;6.60;;;;;;;17.68;78.96;100430.02;1744607;82;20936;-83
2021/06/08 04:15:51;;;;;;;8.28;6.22;;;;;;;18.04;78.91;100430.72;1744756;81;21588;-84
2021/06/08 04:18:20;;;;;;;7.95;5.78;;;;;;;18.58;78.18;100432.55;1744845;82;20893;-85
2021/06/08 04:20:48;;;;;;;8.70;6.50;;;;;;;19.22;76.57;100429.91;1744800;82;20928;-83
2021/06/08 04:23:15;;;;;;;6.35;5.08;;;;;;;19.87;74.49;100435.73;1744613;80;20901;-86
2021/06/08 04:25:44;;;;;;;8.23;5.62;;;;;;;20.50;72.35;100432.39;1715089;82;20889;-83
2021/06/08 04:28:11;;;;;;;6.25;5.20;;;;;;;21.13;70.35;100432.89;1687819;84;21366;-84
2021/06/08 04:30:38;;;;;;;6.42;5.37;;;;;;;21.67;68.54;100426.05;1708891;84;20879;-84
2021/06/08 04:33:05;;;;;;;5.47;4.60;;;;;;;22.24;66.36;100434.97;1710646;83;20892;-82
2021/06/08 04:35:32;;;;;;;4.95;4.30;;;;;;;22.73;64.54;100435.56;1708809;84;20987;-81
2021/06/08 04:37:59;;;;;;;4.60;4.00;;;;;;;23.17;63.08;100430.13;1734242;82;20980;-82
2021/06/08 04:40:27;;;;;;;4.42;3.65;;;;;;;23.64;61.80;100434.41;1744709;82;21125;-80
2021/06/08 04:42:54;;;;;;;3.77;3.25;;;;;;;24.04;60.40;100435.03;1744510;82;20861;-82
2021/06/08 04:45:21;;;;;;;4.55;2.83;;;;;;;24.40;58.86;100436.94;1744748;82;20905;-82
2021/06/08 04:47:47;;;;;;;5.15;3.70;;;;;;;24.70;58.02;100432.88;1715243;82;21015;-81
2021/06/08 04:50:14;;;;;;;3.42;2.92;;;;;;;25.02;57.19;100426.22;1744600;82;20882;-80
2021/06/08 04:52:42;;;;;;;3.20;2.90;;;;;;;25.36;55.99;100430.88;1744932;82;21091;-80
2021/06/08 04:55:11;;;;;;;3.58;3.12;;;;;;;25.63;55.38;100430.60;1753178;80;21566;-80
2021/06/08 04:57:39;;;;;;;3.45;3.08;;;;;;;25.89;54.14;100433.17;1758301;80;21434;-81
2021/06/08 05:00:12;;;;;;;4.85;3.02;;;;;;;26.15;53.64;100429.81;1757884;81;20877;-81
2021/06/08 05:03:07;;;;;;;3.02;2.77;;;;;;;26.38;52.81;100429.49;1696926;83;20971;-80
2021/06/08 05:05:34;;;;;;;6.25;3.17;;;;;;;26.58;52.02;100418.02;1721839;83;21144;-80
2021/06/08 05:08:22;;;;;;;3.17;2.35;;;;;;;26.82;51.33;100417.45;1722145;83;20856;-80
2021/06/08 05:11:13;;;;;;;4.95;2.85;;;;;;;27.08;50.60;100417.20;1721854;82;20927;-80
2021/06/08 05:13:45;;;;;;;5.00;2.87;;;;;;;27.30;50.01;100417.84;1722099;82;20978;-81
2021/06/08 05:16:11;;;;;;;5.33;3.05;;;;;;;27.51;49.26;100410.61;1721779;82;20916;-81
2021/06/08 05:18:37;;;;;;;3.22;3.02;;;;;;;27.72;49.14;100412.23;1722091;83;21108;-81
2021/06/08 05:21:05;;;;;;;3.02;2.55;;;;;;;27.92;48.98;100413.56;1721758;83;20966;-81
2021/06/08 05:23:35;;;;;;;2.67;2.47;;;;;;;28.16;48.24;100411.52;1722037;83;20880;-79
2021/06/08 05:26:02;;;;;;;2.72;2.52;;;;;;;28.40;47.95;100411.32;1721847;82;20943;-81
2021/06/08 05:28:29;;;;;;;2.47;2.27;;;;;;;28.51;47.01;100411.20;1722092;83;21535;-80
2021/06/08 05:30:57;;;;;;;7.20;2.02;;;;;;;28.48;47.19;100408.91;1721780;82;21147;-80
2021/06/08 05:33:24;;;;;;;4.22;2.27;;;;;;;28.44;46.59;100408.50;1722113;83;20896;-80
2021/06/08 05:35:54;;;;;;;2.90;2.00;;;;;;;28.37;46.42;100410.91;1721797;83;20935;-81
2021/06/08 05:38:39;;;;;;;3.25;2.30;;;;;;;28.32;46.50;100404.81;1721879;83;20970;-81
2021/06/08 05:41:12;;;;;;;3.33;2.52;;;;;;;28.27;46.55;100411.38;1721944;82;20927;-84
2021/06/08 05:43:39;;;;;;;2.25;2.05;;;;;;;28.18;46.02;100411.31;1721890;83;21144;-81
2021/06/08 05:46:07;;;;;;;3.33;2.27;;;;;;;28.10;46.18;100412.36;1722195;83;20912;-79
2021/06/08 05:48:35;;;;;;;2.50;2.30;;;;;;;28.04;46.26;100409.19;1721882;82;20903;-80
2021/06/08 05:51:03;;;;;;;3.00;2.80;;;;;;;28.09;46.59;100413.41;1722243;82;20916;-80
2021/06/08 05:53:30;;;;;;;2.90;2.27;;;;;;;28.09;46.71;100413.41;1721880;82;21325;-78
2021/06/08 05:55:57;;;;;;;2.70;2.50;;;;;;;28.00;46.25;100410.13;1717288;82;21122;-79
2021/06/08 05:58:31;;;;;;;4.70;2.47;;;;;;;27.92;46.35;100404.13;1716408;83;21398;-81
2021/06/08 06:00:59;;;;;;;5.42;2.33;;;;;;;27.74;46.43;100404.23;1716612;83;20892;-78
2021/06/08 06:03:29;;;;;;;2.75;2.50;;;;;;;27.47;47.12;100408.84;1716366;83;20959;-78
2021/06/08 06:05:56;;;;;;;5.83;3.27;;;;;;;27.17;47.58;100403.84;1716426;83;20869;-77
2021/06/08 06:09:22;;;;;;;2.42;2.33;;;;;;;26.89;48.44;100412.09;1798621;79;22703;-79
2021/06/08 06:11:52;;;;;;;3.27;3.00;;;;;;;26.64;49.11;100403.77;1758401;81;21307;-78
2021/06/08 06:14:23;;;;;;;3.37;3.08;;;;;;;26.46;50.17;100401.61;1758277;80;21819;-79
2021/06/08 06:16:53;;;;;;;3.40;2.70;;;;;;;26.43;50.11;100401.47;1758249;80;20936;-80
2021/06/08 06:19:26;;;;;;;4.58;2.12;;;;;;;26.56;50.40;100398.56;1758277;81;21406;-79
2021/06/08 06:21:54;;;;;;;6.37;3.22;;;;;;;26.79;50.10;100408.95;1758561;81;20948;-80
2021/06/08 06:24:21;;;;;;;4.55;2.60;;;;;;;26.84;49.86;100405.16;1758571;81;20892;-79
2021/06/08 06:26:48;;;;;;;4.00;2.98;;;;;;;26.87;49.50;100400.17;1758387;81;21118;-79
2021/06/08 06:29:15;;;;;;;5.15;3.35;;;;;;;26.87;49.20;100404.73;1758374;81;20872;-80
2021/06/08 06:31:46;;;;;;;7.17;3.37;;;;;;;26.83;49.34;100401.61;1758356;81;21018;-79
2021/06/08 06:34:16;;;;;;;3.30;3.00;;;;;;;26.73;49.57;100399.03;1758338;81;20945;-81
2021/06/08 06:36:46;;;;;;;3.15;2.37;;;;;;;26.53;49.56;100401.63;1758519;80;21034;-80
2021/06/08 06:39:23;;;;;;;2.90;2.70;;;;;;;26.25;49.82;100398.52;1758428;80;21173;-83
2021/06/08 06:41:51;;;;;;;5.03;3.42;;;;;;;25.93;50.34;100400.03;1757959;81;21398;-80
2021/06/08 06:44:19;;;;;;;3.92;3.42;;;;;;;25.68;51.02;100391.06;1758517;80;20939;-83
2021/06/08 06:46:46;;;;;;;3.52;3.22;;;;;;;25.46;51.52;100388.09;1758620;80;20959;-78
2021/06/08 06:49:13;;;;;;;4.42;2.80;;;;;;;25.28;51.90;100393.95;1758295;81;20940;-78
2021/06/08 06:51:44;;;;;;;3.37;2.80;;;;;;;25.20;52.36;100388.22;1758793;81;21061;-81
2021/06/08 06:54:11;;;;;;;4.53;2.95;;;;;;;25.29;52.71;100391.59;1758292;81;20845;-77
2021/06/08 06:56:38;;;;;;;2.55;2.35;;;;;;;25.40;52.94;100385.17;1758608;81;21421;-77
2021/06/08 06:59:05;;;;;;;4.15;2.85;;;;;;;25.74;52.01;100385.41;1758298;81;20881;-80
2021/06/08 07:01:32;;;;;;;5.85;3.17;;;;;;;26.21;51.24;100391.39;1758868;81;21405;-79
2021/06/08 07:04:00;;;;;;;3.87;3.58;;;;;;;26.76;50.49;100392.70;1758703;81;21967;-78
2021/06/08 07:06:29;;;;;;;4.92;3.05;;;;;;;27.29;49.82;100389.27;1758823;81;20881;-77
2021/06/08 07:08:57;;;;;;;2.45;2.15;;;;;;;27.82;48.20;100393.24;1752963;81;20928;-78
2021/06/08 07:11:25;;;;;;;2.55;2.35;;;;;;;28.34;46.83;100389.77;1751328;82;20932;-80
2021/06/08 07:13:53;;;;;;;3.87;2.50;;;;;;;28.82;45.86;100387.98;1712899;83;20892;-79
2021/06/08 07:16:24;;;;;;;2.02;1.82;;;;;;;29.21;44.66;100386.05;1712974;83;21041;-79
2021/06/08 07:18:51;;;;;;;1.80;1.70;;;;;;;29.45;43.19;100381.69;1712613;83;21015;-79
2021/06/08 07:21:20;;;;;;;2.20;2.00;;;;;;;29.45;43.41;100388.44;1712448;83;21381;-79
2021/06/08 07:23:50;;;;;;;2.75;2.55;;;;;;;29.32;43.19;100379.39;1712106;83;20868;-78
2021/06/08 07:26:18;;;;;;;4.80;1.95;;;;;;;29.01;43.45;100377.55;1712309;83;20888;-76
2021/06/08 07:28:45;;;;;;;1.70;1.60;;;;;;;28.93;43.58;100377.30;1711994;83;21097;-78
2021/06/08 07:31:32;;;;;;;1.90;1.55;;;;;;;29.03;43.81;100370.58;1712236;82;21432;-80
2021/06/08 07:34:04;;;;;;;3.25;1.87;;;;;;;29.17;43.65;100373.53;1750274;82;20924;-78
2021/06/08 07:36:43;;;;;;;1.57;1.30;;;;;;;29.57;43.62;100373.16;1750577;80;20909;-80
2021/06/08 07:39:21;;;;;;;1.57;1.00;;;;;;;29.80;43.11;100371.17;1750288;82;20888;-80
2021/06/08 07:42:01;;;;;;;2.47;1.30;;;;;;;29.92;41.12;100372.05;1712150;82;21153;-80
2021/06/08 07:44:31;;;;;;;1.30;1.20;;;;;;;29.85;40.15;100366.44;1712250;83;20833;-73
2021/06/08 07:47:04;;;;;;;1.55;1.37;;;;;;;29.90;40.39;100363.88;1711923;83;20888;-76
2021/06/08 07:49:33;;;;;;;1.52;1.35;;;;;;;30.06;40.50;100361.92;1750212;80;20924;-77
2021/06/08 07:52:02;;;;;;;1.75;1.12;;;;;;;30.32;40.02;100359.41;1750197;80;21394;-75
2021/06/08 07:54:30;;;;;;;3.72;1.50;;;;;;;30.61;39.79;100355.58;1750031;81;21135;-73
2021/06/08 07:56:57;;;;;;;1.37;1.17;;;;;;;30.93;38.71;100358.06;1749987;82;21296;-76
2021/06/08 07:59:24;;;;;;;2.35;1.27;;;;;;;31.18;37.70;100351.88;1750435;80;20905;-75
2021/06/08 08:01:50;;;;;;;2.05;0.95;;;;;;;31.52;36.94;100352.14;1750186;80;21418;-73
2021/06/08 08:04:23;;;;;;;2.92;1.42;;;;;;;31.89;36.70;100352.39;1750371;81;20873;-74
2021/06/08 08:06:55;;;;;;;0.90;0.90;;;;;;;32.12;35.37;100353.69;1710945;83;21150;-74
2021/06/08 08:09:22;;;;;;;2.30;0.98;;;;;;;32.29;34.76;100348.33;1709544;82;21006;-76
2021/06/08 08:11:52;;;;;;;1.30;1.20;;;;;;;32.44;34.17;100338.30;1709117;82;20884;-76
2021/06/08 08:14:24;;;;;;;4.55;1.90;;;;;;;32.70;33.63;100336.05;1710392;82;20920;-77
2021/06/08 08:16:51;;;;;;;4.70;1.50;;;;;;;32.99;33.85;100332.72;1709261;84;20884;-77
2021/06/08 08:19:20;;;;;;;1.27;1.10;;;;;;;33.13;34.02;100325.92;1709048;83;21065;-77
2021/06/08 08:21:48;;;;;;;2.20;1.55;;;;;;;33.25;33.68;100323.09;1708710;84;20884;-74
2021/06/08 08:24:14;;;;;;;3.08;1.60;;;;;;;33.44;32.99;100316.30;1708999;82;20979;-76
2021/06/08 08:26:41;;;;;;;3.67;1.50;;;;;;;33.67;32.68;100311.73;1700979;83;21011;-75
2021/06/08 08:29:08;;;;;;;2.55;1.12;;;;;;;33.83;32.22;100310.01;1696348;83;20940;-75
2021/06/08 08:31:37;;;;;;;3.25;0.85;;;;;;;33.91;32.82;100302.77;1696074;84;21389;-75
2021/06/08 08:34:04;;;;;;;0.93;0.93;;;;;;;33.96;31.72;100307.44;1696666;84;21141;-75
2021/06/08 08:36:37;;;;;;;0.90;0.90;;;;;;;34.05;31.03;100304.55;1696068;84;20971;-76
2021/06/08 08:39:09;;;;;;;1.75;0.98;;;;;;;34.07;30.57;100302.39;1696478;84;21406;-76
2021/06/08 08:41:36;;;;;;;4.22;1.25;;;;;;;34.12;31.67;100298.39;1696249;84;20991;-74
2021/06/08 08:44:05;;;;;;;2.25;1.40;;;;;;;34.27;31.36;100300.45;1696328;84;21803;-77
2021/06/08 08:46:51;;;;;;;3.27;1.77;;;;;;;34.00;30.73;100306.67;1696215;84;21529;-76
2021/06/08 08:49:18;;;;;;;3.25;1.45;;;;;;;33.82;31.21;100305.11;1696081;83;21003;-74
2021/06/08 08:51:45;;;;;;;18.23;2.37;;;;;;;33.85;31.33;100311.94;1696092;83;20936;-76
2021/06/08 08:54:12;;;;;;;1.35;0.80;;;;;;;33.99;31.07;100310.45;1666448;84;20923;-75
2021/06/08 08:56:40;;;;;;;1.95;1.10;;;;;;;34.21;30.35;100311.81;1696336;84;21174;-76
2021/06/08 08:59:13;;;;;;;1.92;0.90;;;;;;;34.15;30.35;100312.02;1696032;84;21358;-74
2021/06/08 09:01:41;;;;;;;0.60;0.60;;;;;;;33.73;30.06;100316.16;1696132;84;20904;-77
2021/06/08 09:04:08;;;;;;;9.10;1.37;;;;;;;33.19;30.48;100317.28;1696211;84;20921;-77
2021/06/08 09:06:36;;;;;;;1.80;1.00;;;;;;;32.65;31.94;100315.06;1696064;84;20932;-77
2021/06/08 09:09:06;;;;;;;4.15;1.52;;;;;;;32.14;32.47;100317.64;1698603;83;22162;-77
2021/06/08 09:11:36;;;;;;;9.78;2.65;;;;;;;31.58;33.31;100308.36;1711219;82;20982;-77
2021/06/08 09:14:01;;;;;;;2.65;1.35;;;;;;;30.96;34.37;100302.06;1701561;84;20932;-74
2021/06/08 09:16:28;;;;;;;3.35;1.77;;;;;;;30.37;35.11;100297.84;1711306;83;20939;-75
2021/06/08 09:18:55;;;;;;;19.48;2.80;;;;;;;29.88;36.31;100298.37;1701442;84;20963;-76
2021/06/08 09:21:26;;;;;;;6.60;2.85;;;;;;;29.45;37.96;100306.03;1711235;82;21515;-74
2021/06/08 09:23:52;;;;;;;10.13;2.33;;;;;;;28.87;39.78;100307.16;1701526;84;21002;-73
2021/06/08 09:26:20;;;;;;;4.62;3.00;;;;;;;28.16;42.83;100306.35;1711271;82;20928;-72
2021/06/08 09:28:47;;;;;;;3.98;3.47;;;;;;;27.49;45.04;100309.27;1701633;83;20935;-79
2021/06/08 09:31:23;;;;;;;16.10;6.58;;;;;;;26.86;47.16;100322.36;1711276;82;20868;-74
2021/06/08 09:33:54;;;;;;;11.97;9.08;;;;;;;26.23;49.72;100334.22;1701631;83;21142;-74
2021/06/08 09:36:29;;;;;;;11.93;8.30;;;;;;;25.69;50.35;100336.30;1711311;82;21081;-74
2021/06/08 09:38:59;;;;;;;11.75;7.20;;;;;;;25.19;51.82;100332.37;1701609;84;20964;-74
2021/06/08 09:41:43;;;;;;;9.63;7.45;;;;;;;24.50;51.25;100327.60;1711301;82;21413;-74
2021/06/08 09:44:13;;;;;;;11.35;7.47;;;;;;;23.97;50.96;100347.05;1682436;84;20899;-75
2021/06/08 09:46:55;;;;;;;8.65;7.67;;;;;;;23.49;53.07;100350.56;1700957;84;21004;-76
2021/06/08 09:49:38;;;;;;;7.58;6.30;;;;;;;23.08;55.52;100341.08;1711483;82;20919;-76
2021/06/08 09:52:07;;;;;;;7.92;5.83;;;;;;;22.65;56.81;100336.69;1701532;84;21418;-75
2021/06/08 09:54:43;;;;;;;7.58;5.85;;;;;;;22.32;57.53;100338.73;1711460;82;20988;-78
2021/06/08 09:57:18;;;;;;;12.33;6.40;;;;;;;22.08;59.66;100335.68;1701601;84;20936;-74
2021/06/08 10:00:00;;;;;;;8.55;5.62;;;;;;;21.83;61.51;100329.11;1711713;83;21183;-79
2021/06/08 10:02:50;;;;;;;9.35;6.65;;;;;;;21.72;62.94;100322.30;1701189;83;20923;-79
2021/06/08 10:05:29;;;;;;;9.48;5.75;;;;;;;21.96;63.98;100320.52;1707558;82;21366;-79
2021/06/08 10:08:04;;;;;;;10.72;5.97;;;;;;;22.46;63.61;100321.96;1701452;83;20995;-75
2021/06/08 10:10:40;;;;;;;10.40;5.35;;;;;;;23.12;62.97;100317.45;1701551;83;20975;-74
2021/06/08 10:13:11;;;;;;;7.33;5.78;;;;;;;23.70;61.12;100307.84;1695130;84;21102;-70
2021/06/08 10:15:58;;;;;;;6.53;5.35;;;;;;;24.23;60.66;100304.98;1696057;83;20920;-78
2021/06/08 10:18:26;;;;;;;6.17;5.47;;;;;;;24.65;59.88;100303.91;1696044;83;21007;-77
2021/06/08 10:20:56;;;;;;;6.55;4.70;;;;;;;24.97;59.44;100302.03;1666092;84;20964;-74
2021/06/08 10:23:28;;;;;;;5.87;4.37;;;;;;;25.16;56.93;100295.14;1696098;84;20944;-75
2021/06/08 10:25:59;;;;;;;5.22;3.47;;;;;;;25.22;56.30;100291.72;1696421;84;21129;-75
2021/06/08 10:28:26;;;;;;;4.75;3.75;;;;;;;25.25;55.14;100285.64;1695968;83;21008;-76
2021/06/08 10:30:56;;;;;;;6.90;3.95;;;;;;;25.50;54.92;100286.84;1696071;84;21008;-75
2021/06/08 10:33:24;;;;;;;7.65;4.03;;;;;;;25.74;57.07;100284.15;1695984;84;20996;-74
2021/06/08 10:35:52;;;;;;;4.25;3.85;;;;;;;26.08;57.22;100287.00;1696310;84;20888;-74
2021/06/08 10:38:19;;;;;;;5.03;3.87;;;;;;;26.19;56.21;100287.26;1696032;83;21139;-74
2021/06/08 10:40:50;;;;;;;7.78;4.40;;;;;;;26.26;56.71;100296.69;1696286;84;20999;-75
2021/06/08 10:43:20;;;;;;;6.80;4.60;;;;;;;26.17;53.73;100302.77;1696080;84;20904;-76
2021/06/08 10:45:47;;;;;;;6.50;4.67;;;;;;;25.83;53.81;100304.47;1696233;83;20897;-79
2021/06/08 10:48:18;;;;;;;4.70;4.15;;;;;;;25.44;53.71;100305.08;1696048;83;21074;-77
2021/06/08 10:50:49;;;;;;;8.98;4.05;;;;;;;25.10;54.57;100312.53;1695852;84;21143;-76
2021/06/08 10:53:37;;;;;;;10.90;3.70;;;;;;;24.72;54.71;100320.88;1696233;84;20980;-78
2021/06/08 10:56:24;;;;;;;13.08;4.40;;;;;;;24.03;54.55;100334.73;1696149;84;21512;-76
2021/06/08 10:58:54;;;;;;;3.40;2.17;;;;;;;23.32;56.13;100356.09;1696603;84;21015;-77
2021/06/08 11:01:45;;;;;;;15.38;3.70;;;;;;;22.72;57.83;100356.86;1696326;84;20952;-75
2021/06/08 11:04:24;;;;;;;9.60;3.37;;;;;;;22.15;59.56;100359.34;1695839;84;21430;-73
2021/06/08 11:07:00;;;;;;;4.42;2.35;;;;;;;21.59;61.29;100342.50;1696073;84;21003;-78
2021/06/08 11:09:33;;;;;;;5.25;2.40;;;;;;;21.17;62.29;100343.05;1703131;83;20970;-77
2021/06/08 11:12:11;;;;;;;3.67;2.20;;;;;;;20.86;63.37;100332.23;1717169;83;20965;-75
2021/06/08 11:14:58;;;;;;;4.53;2.17;;;;;;;20.64;64.04;100330.53;1716242;83;21115;-74
2021/06/08 11:17:34;;;;;;;8.05;2.85;;;;;;;20.45;65.35;100327.66;1721912;82;21198;-74
2021/06/08 11:20:05;;;;;;;7.33;2.62;;;;;;;20.29;66.40;100338.25;1693149;83;21426;-75
2021/06/08 11:22:44;;;;;;;4.00;2.25;;;;;;;20.16;66.85;100357.34;1693033;84;21005;-74
2021/06/08 11:25:33;;;;;;;6.70;4.00;;;;;;;20.04;67.46;100362.63;1693238;83;21449;-74
2021/06/08 11:28:06;;;;;;;6.72;3.33;;;;;;;19.91;68.06;100371.55;1688939;83;21345;-74
2021/06/08 11:30:58;;;;;;;6.97;2.92;;;;;;;19.79;69.29;100381.65;1693584;83;21146;-75
2021/06/08 11:33:37;;;;;;;8.58;4.22;;;;;;;19.67;70.30;100387.68;1690681;83;20955;-77
2021/06/08 11:36:22;;;;;;;5.62;4.03;;;;;;;19.61;71.34;100385.67;1722078;82;20903;-75
2021/06/08 11:38:52;;;;;;;6.37;4.12;;;;;;;19.58;71.35;100380.14;1692962;83;20951;-75
2021/06/08 11:41:19;;;;;;;6.95;4.55;;;;;;;19.55;70.97;100387.62;1693237;83;21381;-74